Terminal Aerodrome Forecast
Issued by NWS Albany, NY

Home | Current Version | Previous Version | Text Only | Print | Product List | Glossary On
Versions: 1 2 3 4 5 6 7 8 9 10 11 12 13 14 15
000
FTUS41 KALY 301252 AAB
TAFPOU
TAF AMD
KPOU 301252Z 3013/0112 00000KT P6SM FEW009
     FM301400 VRB03KT P6SM BKN050
     FM301600 19005KT P6SM SCT050 SCT250
     FM302300 VRB03KT P6SM BKN060 BKN200
     FM010400 00000KT P6SM SCT035 OVC060
     FM010900 00000KT P6SM VCSH OVC035=

USA.gov is the U.S. government's official web portal to all federal, state and local government web resources and services.